Time;durP1;ratioP1;P1;durP2;ratioP2;P2;SDS_P1;SDS_P2;PMS_P1;PMS_P2;Temp;Humidity;BMP_temperature;BMP_pressure;BME280_temperature;BME280_humidity;BME280_pressure;Samples;Min_cycle;Max_cycle;Signal;HPM_P1;HPM_P2
2021/12/17 00:03:19;;;;;;;12.27;7.15;;;;;;;4.15;70.66;99613.34;9846578;30;20051;-85
2021/12/17 00:08:13;;;;;;;12.57;7.72;;;;;;;4.16;70.69;99597.53;9874672;30;20048;-81
2021/12/17 00:13:36;;;;;;;10.25;7.28;;;;;;;4.11;70.45;99612.84;9851924;30;20028;-84
2021/12/17 00:20:03;;;;;;;10.40;6.72;;;;;;;4.07;70.78;99601.31;9851339;30;20036;-85
2021/12/17 00:53:08;;;;;;;13.07;6.97;;;;;;;3.96;70.80;99595.81;9855105;30;20072;-84
2021/12/17 00:58:30;;;;;;;10.95;6.78;;;;;;;3.89;70.85;99608.13;9847125;30;20040;-84
2021/12/17 01:03:52;;;;;;;10.52;7.03;;;;;;;3.81;70.88;99601.59;9847481;30;20048;-81
2021/12/17 01:09:16;;;;;;;11.88;6.53;;;;;;;3.77;70.58;99608.63;9861597;30;20063;-83
2021/12/17 01:14:40;;;;;;;11.50;6.68;;;;;;;3.67;70.78;99613.66;9836946;30;20038;-85
2021/12/17 01:20:48;;;;;;;10.80;6.53;;;;;;;3.69;70.91;99597.34;9852172;30;20056;-84
2021/12/17 01:44:07;;;;;;;12.63;7.38;;;;;;;3.71;71.18;99627.97;9852519;30;20037;-81
2021/12/17 02:00:39;;;;;;;13.57;7.82;;;;;;;3.65;70.76;99622.44;9864263;30;20058;-80
2021/12/17 02:06:04;;;;;;;10.75;6.97;;;;;;;3.61;70.42;99616.41;9836127;30;20063;-84
2021/12/17 02:36:06;;;;;;;14.02;7.68;;;;;;;3.36;71.39;99617.41;10828959;24;20075;-81
2021/12/17 03:13:10;;;;;;;11.23;7.13;;;;;;;3.28;70.93;99624.66;9809256;30;20033;-85
2021/12/17 03:37:40;;;;;;;15.18;8.23;;;;;;;3.14;70.99;99634.69;10897044;24;20059;-83
2021/12/17 03:43:10;;;;;;;12.07;6.50;;;;;;;3.17;71.15;99631.66;9889018;30;20042;-85
2021/12/17 03:48:36;;;;;;;11.52;6.45;;;;;;;3.19;71.11;99630.44;9884768;29;20028;-81
2021/12/17 03:53:59;;;;;;;13.07;6.68;;;;;;;3.15;71.15;99625.91;9881899;30;20047;-83
2021/12/17 03:59:26;;;;;;;12.35;6.63;;;;;;;3.13;70.98;99614.63;9870248;30;20039;-82
2021/12/17 04:04:49;;;;;;;11.68;6.65;;;;;;;3.14;71.27;99629.91;9855629;30;20036;-80
2021/12/17 04:10:38;;;;;;;10.05;6.28;;;;;;;3.16;71.08;99605.31;9846922;30;20039;-83
2021/12/17 04:16:07;;;;;;;14.02;6.38;;;;;;;3.19;71.57;99602.84;9858632;30;20066;-81
2021/12/17 04:21:29;;;;;;;9.35;5.55;;;;;;;3.26;71.51;99603.09;9832871;30;20058;-82
2021/12/17 04:26:51;;;;;;;10.15;5.97;;;;;;;3.33;71.66;99602.59;9841359;30;20040;-82
2021/12/17 04:32:19;;;;;;;12.10;5.88;;;;;;;3.39;71.57;99583.28;9835539;30;20048;-83
2021/12/17 04:37:42;;;;;;;10.60;5.63;;;;;;;3.42;71.83;99576.75;9842957;30;20058;-82
2021/12/17 04:43:19;;;;;;;10.32;6.07;;;;;;;3.47;71.88;99556.66;9841055;30;20052;-81
2021/12/17 05:00:19;;;;;;;11.02;6.25;;;;;;;3.50;71.60;99555.69;9830750;30;20064;-83
2021/12/17 05:05:48;;;;;;;10.32;6.40;;;;;;;3.50;71.59;99541.88;9815041;30;20090;-85
2021/12/17 05:11:27;;;;;;;15.25;7.68;;;;;;;3.52;71.30;99535.84;9804421;30;20432;-84
2021/12/17 05:22:32;;;;;;;10.82;6.70;;;;;;;3.49;71.29;99526.56;9817065;30;20052;-83
2021/12/17 05:27:55;;;;;;;12.45;7.43;;;;;;;3.52;71.34;99541.34;9808215;30;20071;-86
2021/12/17 05:33:19;;;;;;;11.90;7.05;;;;;;;3.48;71.91;99536.09;9812367;30;20057;-82
2021/12/17 05:38:41;;;;;;;13.43;7.78;;;;;;;3.51;71.38;99534.34;9848857;30;20050;-83
2021/12/17 05:44:03;;;;;;;12.02;7.15;;;;;;;3.58;71.34;99545.63;9844033;30;20043;-82
2021/12/17 05:49:27;;;;;;;11.55;6.35;;;;;;;3.59;70.95;99530.56;9816971;30;20036;-81
2021/12/17 05:54:52;;;;;;;9.75;6.18;;;;;;;3.63;70.94;99544.09;9838301;30;20076;-80
2021/12/17 06:00:15;;;;;;;13.70;7.10;;;;;;;3.61;71.00;99541.84;9839951;30;20044;-79
2021/12/17 06:05:37;;;;;;;11.75;6.50;;;;;;;3.61;71.27;99530.81;9833283;30;20060;-81
2021/12/17 06:11:00;;;;;;;12.35;6.18;;;;;;;3.66;71.21;99540.31;9830478;30;20048;-81
2021/12/17 06:16:27;;;;;;;9.80;6.55;;;;;;;3.74;70.68;99550.34;9835249;30;20032;-80
2021/12/17 06:21:49;;;;;;;13.33;6.67;;;;;;;3.72;70.51;99544.59;9828427;30;20075;-81
2021/12/17 06:27:16;;;;;;;11.07;7.03;;;;;;;3.69;70.75;99534.56;9833551;30;20036;-81
2021/12/17 06:32:38;;;;;;;13.10;7.55;;;;;;;3.65;70.03;99536.81;9837234;30;20943;-82
2021/12/17 06:38:00;;;;;;;11.77;7.72;;;;;;;3.56;70.53;99534.31;9825168;30;20037;-79
2021/12/17 06:43:36;;;;;;;12.70;8.52;;;;;;;3.53;70.07;99534.56;9840100;30;20048;-81
2021/12/17 06:49:20;;;;;;;11.18;7.40;;;;;;;3.48;70.40;99543.63;9826841;30;20077;-79
2021/12/17 07:00:58;;;;;;;12.02;7.78;;;;;;;3.46;70.09;99555.16;9828989;30;20036;-84
2021/12/17 07:55:33;;;;;;;13.45;7.05;;;;;;;9.62;61.92;99580.81;10171892;24;20043;-86
2021/12/17 08:00:59;;;;;;;13.52;8.25;;;;;;;12.72;58.54;99577.84;9876654;30;20118;-87
2021/12/17 08:06:21;;;;;;;13.95;8.25;;;;;;;15.39;54.00;99591.56;9860226;30;20116;-86
2021/12/17 08:11:58;;;;;;;12.07;7.90;;;;;;;17.74;47.84;99596.09;9850418;30;20052;-87
2021/12/17 08:24:36;;;;;;;10.10;7.03;;;;;;;20.82;46.98;99601.94;10041829;24;20071;-85
2021/12/17 08:29:54;;;;;;;10.77;7.00;;;;;;;18.25;46.12;99605.94;9843742;30;20044;-82
2021/12/17 08:35:26;;;;;;;11.02;7.00;;;;;;;20.27;43.68;99613.69;9917771;24;20070;-86
2021/12/17 08:40:58;;;;;;;9.07;6.95;;;;;;;21.84;42.28;99618.88;9861789;30;20058;-87
2021/12/17 08:46:21;;;;;;;8.90;6.60;;;;;;;22.78;39.48;99619.44;9850070;30;20131;-87
2021/12/17 08:51:54;;;;;;;9.25;6.40;;;;;;;24.95;35.55;99601.25;9850752;30;20052;-84
2021/12/17 08:57:16;;;;;;;7.68;5.68;;;;;;;25.15;33.66;99602.09;9849160;30;20051;-86
2021/12/17 09:02:38;;;;;;;11.35;6.20;;;;;;;26.47;31.74;99601.22;9861202;30;20048;-85
2021/12/17 09:08:22;;;;;;;7.60;5.88;;;;;;;27.52;29.01;99596.63;9827718;30;20044;-83
2021/12/17 09:13:46;;;;;;;9.38;5.28;;;;;;;25.28;28.94;99603.28;9824854;30;20127;-84
2021/12/17 09:19:09;;;;;;;10.68;5.93;;;;;;;23.94;29.54;99601.31;9823607;30;20345;-84
2021/12/17 09:24:38;;;;;;;11.10;6.07;;;;;;;26.37;27.57;99617.28;9824040;30;20052;-84
2021/12/17 09:30:16;;;;;;;9.07;5.88;;;;;;;27.98;26.10;99608.72;9815101;30;20408;-83
2021/12/17 09:35:37;;;;;;;9.65;5.72;;;;;;;29.52;22.92;99599.59;9810406;30;20458;-84
2021/12/17 09:40:58;;;;;;;7.65;5.30;;;;;;;29.10;23.13;99614.47;9811018;30;20123;-84
2021/12/17 09:46:18;;;;;;;7.68;4.97;;;;;;;30.10;21.91;99616.63;9796717;30;20488;-84
2021/12/17 09:51:41;;;;;;;8.38;5.35;;;;;;;30.05;20.33;99620.81;9811258;30;20052;-84
2021/12/17 09:57:02;;;;;;;8.15;5.43;;;;;;;28.61;21.06;99601.06;9810541;30;20048;-85
2021/12/17 10:02:23;;;;;;;7.97;5.30;;;;;;;30.03;19.70;99612.16;9810447;30;20049;-84
2021/12/17 10:07:44;;;;;;;8.38;5.90;;;;;;;30.93;18.47;99606.56;9810688;30;20180;-84
2021/12/17 10:13:10;;;;;;;7.20;5.97;;;;;;;30.48;18.89;99605.06;9834545;30;20058;-84
2021/12/17 10:18:32;;;;;;;8.65;5.60;;;;;;;30.45;17.47;99612.22;9810146;30;20052;-84
2021/12/17 10:23:58;;;;;;;8.25;5.57;;;;;;;26.87;19.44;99591.75;9821711;30;20060;-84
2021/12/17 10:29:20;;;;;;;8.18;5.30;;;;;;;24.57;21.65;99575.47;9822086;30;20056;-84
2021/12/17 10:34:58;;;;;;;;;;;;;;;23.91;21.61;99576.94;9810056;30;20526;-85
2021/12/17 10:40:21;;;;;;;9.57;5.95;;;;;;;19.22;25.17;99582.50;9821581;30;19991;-86
2021/12/17 10:45:46;;;;;;;8.93;6.22;;;;;;;17.24;26.74;99588.38;9821292;30;20052;-87
2021/12/17 10:51:08;;;;;;;9.40;5.88;;;;;;;15.37;29.31;99591.41;9809786;30;20048;-88
2021/12/17 10:56:37;;;;;;;10.85;5.85;;;;;;;14.07;31.33;99580.91;9821215;30;20047;-84
2021/12/17 11:02:05;;;;;;;9.70;5.75;;;;;;;13.49;32.66;99588.69;9809696;30;20056;-80
2021/12/17 11:20:39;;;;;;;10.82;6.45;;;;;;;11.45;36.64;99587.34;10238896;24;20027;31
2021/12/17 11:26:01;;;;;;;10.90;5.53;;;;;;;10.90;38.54;99584.97;9733953;30;19981;-87
2021/12/17 11:31:22;;;;;;;9.07;6.00;;;;;;;10.45;39.29;99574.34;9720121;30;20050;-87
2021/12/17 11:36:45;;;;;;;10.27;6.25;;;;;;;10.17;40.97;99572.31;9718318;30;20050;-86
2021/12/17 11:42:14;;;;;;;11.68;6.47;;;;;;;9.93;40.73;99579.75;9715954;30;20061;-85
2021/12/17 11:47:36;;;;;;;10.73;5.97;;;;;;;9.71;42.06;99569.94;9717390;30;20062;-85
2021/12/17 11:52:58;;;;;;;10.02;5.45;;;;;;;9.50;42.87;99568.44;9720245;30;20081;-86
2021/12/17 11:58:43;;;;;;;9.38;5.50;;;;;;;9.38;44.33;99573.56;9733959;30;20053;-85
2021/12/17 12:04:44;;;;;;;9.90;5.55;;;;;;;9.30;46.06;99573.47;9722676;30;20042;-85
2021/12/17 12:10:13;;;;;;;9.73;4.90;;;;;;;9.26;44.86;99573.06;9668867;30;20042;-84
2021/12/17 12:15:36;;;;;;;12.65;5.43;;;;;;;9.29;45.95;99549.69;9705468;30;20030;-84
2021/12/17 12:21:18;;;;;;;11.25;6.10;;;;;;;9.31;45.87;99549.16;9705178;30;20058;-84
2021/12/17 12:26:49;;;;;;;9.32;5.45;;;;;;;9.38;47.25;99552.00;9703381;30;20070;-84
2021/12/17 12:32:19;;;;;;;11.75;5.43;;;;;;;9.25;47.59;99563.19;9692575;30;20055;-85
2021/12/17 12:37:41;;;;;;;10.25;5.78;;;;;;;9.11;47.53;99561.78;9704923;30;20065;-84
2021/12/17 12:43:03;;;;;;;12.93;6.97;;;;;;;9.01;47.52;99564.28;9703287;30;20050;-89
2021/12/17 12:48:38;;;;;;;14.73;6.78;;;;;;;8.88;49.39;99551.13;9702400;30;20117;-86
2021/12/17 12:54:08;;;;;;;12.63;6.75;;;;;;;8.83;49.10;99560.34;9691400;30;20090;-87
2021/12/17 12:59:30;;;;;;;14.18;7.15;;;;;;;8.82;49.86;99546.97;9685368;30;20066;-81
2021/12/17 13:04:57;;;;;;;11.98;6.70;;;;;;;8.74;49.63;99538.53;9692515;30;20371;-83
2021/12/17 13:10:24;;;;;;;14.88;6.28;;;;;;;8.62;49.90;99528.94;9704287;30;20057;-82
2021/12/17 13:26:58;;;;;;;12.13;5.88;;;;;;;8.41;51.76;99525.34;9689304;30;20123;-85
2021/12/17 13:32:25;;;;;;;13.38;6.13;;;;;;;8.35;52.00;99527.47;9692772;30;20038;-83
2021/12/17 13:37:47;;;;;;;13.32;6.43;;;;;;;8.19;52.32;99530.03;9702750;30;20061;-80
2021/12/17 13:43:09;;;;;;;13.50;6.80;;;;;;;8.00;54.60;99527.34;9690068;30;20059;-81
2021/12/17 13:48:31;;;;;;;13.27;6.50;;;;;;;7.92;54.63;99531.34;9684744;30;20511;-81
2021/12/17 13:53:56;;;;;;;15.20;7.40;;;;;;;7.77;54.61;99536.66;9698423;30;20042;-81
2021/12/17 13:59:32;;;;;;;15.68;7.30;;;;;;;7.72;54.61;99535.44;9674885;30;20050;-81
2021/12/17 14:05:05;;;;;;;12.90;6.65;;;;;;;7.73;55.17;99542.53;9671727;30;20054;-77
2021/12/17 14:10:31;;;;;;;13.80;6.97;;;;;;;7.62;54.96;99549.00;9689428;30;20093;-80
2021/12/17 14:15:53;;;;;;;16.80;7.18;;;;;;;7.65;55.46;99550.00;9690944;30;20050;-79
2021/12/17 14:21:17;;;;;;;13.90;7.28;;;;;;;7.59;55.58;99557.69;9687034;30;20149;-79
2021/12/17 14:26:38;;;;;;;12.23;6.97;;;;;;;7.51;57.12;99554.03;9688276;30;20050;-81
2021/12/17 14:31:59;;;;;;;11.23;5.85;;;;;;;7.52;56.45;99566.63;9693104;30;20418;-80
2021/12/17 14:37:20;;;;;;;12.93;7.15;;;;;;;7.43;56.41;99559.44;9698455;30;20105;-82
2021/12/17 14:42:44;;;;;;;12.43;6.35;;;;;;;7.42;56.60;99564.25;9703022;30;20038;-81
2021/12/17 14:48:22;;;;;;;15.85;8.13;;;;;;;7.42;57.35;99567.03;9690186;30;20077;-81
2021/12/17 15:05:30;;;;;;;14.65;8.30;;;;;;;7.27;58.55;99547.34;9602508;30;20044;-84
2021/12/17 15:10:51;;;;;;;13.05;7.65;;;;;;;7.21;57.78;99554.25;9685581;30;20086;-81
2021/12/17 15:16:13;;;;;;;15.88;8.55;;;;;;;7.15;58.33;99540.47;9690514;30;20062;-83
2021/12/17 15:21:35;;;;;;;13.23;7.70;;;;;;;7.12;58.74;99524.84;9693732;30;20071;-82
2021/12/17 15:26:56;;;;;;;14.65;7.82;;;;;;;7.06;58.94;99527.72;9697931;30;20039;-84
2021/12/17 15:32:17;;;;;;;13.30;7.43;;;;;;;7.05;58.83;99528.25;9681855;30;20071;-81
2021/12/17 15:37:39;;;;;;;14.82;7.63;;;;;;;7.02;59.25;99549.47;9682687;30;20046;-81
2021/12/17 15:43:03;;;;;;;15.82;8.05;;;;;;;6.96;59.52;99542.53;9682119;30;20052;-82
2021/12/17 15:48:24;;;;;;;14.10;7.50;;;;;;;6.80;60.01;99556.09;9682042;30;20157;-81
2021/12/17 15:53:55;;;;;;;14.73;8.20;;;;;;;6.77;59.88;99557.16;9678330;30;20289;-82
2021/12/17 15:59:17;;;;;;;15.23;7.97;;;;;;;6.79;59.81;99553.84;9687321;30;20050;-83
2021/12/17 16:04:42;;;;;;;16.50;7.70;;;;;;;6.79;60.26;99576.06;9706453;30;20093;-83
2021/12/17 16:21:06;;;;;;;14.38;8.73;;;;;;;6.58;61.07;99573.81;9700778;30;20054;-85
2021/12/17 16:26:32;;;;;;;12.93;8.45;;;;;;;6.53;60.25;99577.38;9702347;30;20038;-85
2021/12/17 16:31:54;;;;;;;14.98;8.57;;;;;;;6.51;60.77;99574.41;9660576;30;20050;-81
2021/12/17 16:37:15;;;;;;;17.30;8.93;;;;;;;6.55;61.30;99576.88;9659323;30;20047;-79
2021/12/17 16:42:36;;;;;;;14.30;8.50;;;;;;;6.58;61.56;99587.69;9659900;30;20443;-78
2021/12/17 16:48:02;;;;;;;15.57;8.98;;;;;;;6.54;61.35;99584.44;9650181;30;20581;-80
2021/12/17 16:53:23;;;;;;;17.48;9.25;;;;;;;6.54;61.55;99583.69;9658268;30;20062;-78
2021/12/17 16:58:44;;;;;;;16.85;9.32;;;;;;;6.54;61.77;99589.97;9660700;30;20109;-80
2021/12/17 17:04:06;;;;;;;16.05;9.30;;;;;;;6.59;61.83;99586.41;9671876;30;20475;-79
2021/12/17 17:09:29;;;;;;;15.93;9.52;;;;;;;6.62;61.70;99578.31;9674429;30;20046;-81
2021/12/17 17:14:51;;;;;;;16.83;9.70;;;;;;;6.64;61.76;99575.75;9705780;30;20057;-82
2021/12/17 17:20:12;;;;;;;18.05;10.18;;;;;;;6.60;61.66;99582.34;9706101;30;20061;-82
2021/12/17 17:25:34;;;;;;;16.15;9.88;;;;;;;6.63;61.90;99569.44;9704056;30;20045;-80
2021/12/17 17:30:55;;;;;;;17.30;8.95;;;;;;;6.68;61.70;99576.22;9705919;30;20119;-82
2021/12/17 17:36:21;;;;;;;16.55;9.30;;;;;;;6.63;61.37;99577.03;9705619;30;20059;-82
2021/12/17 17:41:43;;;;;;;14.55;9.73;;;;;;;6.59;61.73;99585.66;9705270;30;20047;-85
2021/12/17 17:47:04;;;;;;;16.85;9.27;;;;;;;6.54;61.65;99589.22;9705596;30;20086;-81
2021/12/17 17:52:26;;;;;;;13.68;8.88;;;;;;;6.55;62.02;99602.59;9704967;30;20089;-83
2021/12/17 17:57:47;;;;;;;14.82;9.07;;;;;;;6.60;61.60;99610.09;9704256;30;20038;-81
2021/12/17 18:03:09;;;;;;;12.98;7.88;;;;;;;6.62;61.70;99617.91;9704311;30;20055;-81
2021/12/17 18:08:31;;;;;;;13.70;7.57;;;;;;;6.62;61.96;99622.69;9703023;30;20062;-81
2021/12/17 18:13:52;;;;;;;14.20;8.88;;;;;;;6.56;61.74;99626.31;9704191;30;20066;-81
2021/12/17 18:19:14;;;;;;;13.50;7.93;;;;;;;6.53;62.05;99635.66;9704136;30;20030;-80
2021/12/17 18:24:35;;;;;;;13.32;7.63;;;;;;;6.53;62.04;99632.13;9703921;30;20054;-83
2021/12/17 18:29:56;;;;;;;13.55;7.85;;;;;;;6.53;61.70;99632.88;9703874;30;20042;-82
2021/12/17 18:35:17;;;;;;;13.50;8.20;;;;;;;6.54;61.70;99617.72;9728987;30;20054;-80
2021/12/17 18:40:45;;;;;;;17.02;9.10;;;;;;;6.52;61.61;99622.31;9721240;30;20054;-79
2021/12/17 18:46:06;;;;;;;13.50;7.63;;;;;;;6.50;61.74;99617.28;9727608;30;20054;-80
2021/12/17 18:51:26;;;;;;;15.30;7.95;;;;;;;6.44;61.74;99624.91;9723691;30;20105;-79
2021/12/17 18:56:47;;;;;;;17.25;8.05;;;;;;;6.44;61.72;99624.91;9737695;30;20081;-82
2021/12/17 19:02:09;;;;;;;16.27;8.15;;;;;;;6.41;61.40;99639.84;9723709;30;20050;-78
2021/12/17 19:07:30;;;;;;;13.40;7.20;;;;;;;6.39;61.75;99649.97;9722145;30;20057;-78
2021/12/17 19:12:51;;;;;;;11.48;7.03;;;;;;;6.33;61.67;99630.59;9720481;30;20054;-79
2021/12/17 19:18:35;;;;;;;13.00;6.97;;;;;;;6.20;62.20;99633.25;9731109;30;20065;-81
2021/12/17 19:24:04;;;;;;;11.27;6.97;;;;;;;6.07;62.03;99608.16;9738184;30;20042;-81
2021/12/17 19:29:25;;;;;;;11.30;6.55;;;;;;;5.88;62.12;99597.72;9726412;30;20041;-80
2021/12/17 19:34:46;;;;;;;11.05;5.93;;;;;;;5.70;62.40;99592.88;9738550;30;20054;-81
2021/12/17 19:40:08;;;;;;;11.73;7.10;;;;;;;5.56;62.61;99605.81;9738328;30;20045;-82
2021/12/17 19:45:29;;;;;;;13.73;6.78;;;;;;;5.42;62.68;99607.69;9738168;30;20061;-79
2021/12/17 19:50:50;;;;;;;11.10;6.63;;;;;;;5.29;62.96;99599.22;9738106;30;20046;-83
2021/12/17 19:56:11;;;;;;;12.00;7.28;;;;;;;5.22;62.83;99602.56;9737868;30;20045;-82
2021/12/17 20:01:32;;;;;;;10.95;6.53;;;;;;;5.21;63.22;99611.34;9737676;30;20038;-80
2021/12/17 20:06:53;;;;;;;10.75;6.55;;;;;;;5.07;63.52;99615.97;9737584;30;20050;-82
2021/12/17 20:12:14;;;;;;;12.23;7.43;;;;;;;5.05;63.34;99619.28;9737654;30;20042;-82
2021/12/17 20:17:35;;;;;;;11.63;7.82;;;;;;;5.02;63.93;99623.06;9724312;30;20137;-78
2021/12/17 20:22:56;;;;;;;15.50;10.43;;;;;;;4.96;63.55;99643.72;9695348;30;20066;-78
2021/12/17 20:28:17;;;;;;;15.73;8.93;;;;;;;4.92;63.98;99640.47;9707562;30;20034;-79
2021/12/17 20:33:38;;;;;;;13.45;7.25;;;;;;;4.86;63.79;99643.28;9743286;30;20038;-78
2021/12/17 20:39:01;;;;;;;10.07;6.20;;;;;;;4.93;64.49;99656.56;9716839;30;20054;-79
2021/12/17 20:44:22;;;;;;;14.70;6.95;;;;;;;4.98;63.84;99652.25;9723425;30;20149;-80
2021/12/17 20:49:44;;;;;;;9.90;6.43;;;;;;;5.05;63.96;99658.03;9710704;30;20496;-80
2021/12/17 20:55:05;;;;;;;9.85;5.63;;;;;;;5.12;64.10;99657.50;9712373;30;20097;-79
2021/12/17 21:00:28;;;;;;;9.32;5.60;;;;;;;5.20;63.64;99656.94;9703591;30;20076;-79
2021/12/17 21:05:49;;;;;;;10.85;6.13;;;;;;;5.18;63.93;99665.75;9706758;30;20047;-80
2021/12/17 21:11:10;;;;;;;9.23;5.13;;;;;;;5.30;63.92;99681.03;9692604;30;20145;-78
2021/12/17 21:16:31;;;;;;;9.63;5.15;;;;;;;5.40;63.87;99673.94;9695922;30;20069;-79
2021/12/17 21:21:53;;;;;;;9.45;5.07;;;;;;;5.54;63.85;99674.84;9696862;30;20078;-80
2021/12/17 21:27:14;;;;;;;8.73;4.82;;;;;;;5.65;63.81;99688.63;9694082;30;20046;-79
2021/12/17 21:32:35;;;;;;;9.00;5.22;;;;;;;5.64;63.55;99678.06;9695758;30;20113;-79
2021/12/17 21:37:59;;;;;;;10.15;5.28;;;;;;;5.55;63.84;99676.34;9696495;30;20129;-79
2021/12/17 21:43:20;;;;;;;7.60;4.40;;;;;;;5.45;63.53;99673.13;9687064;30;20051;-80
2021/12/17 21:48:41;;;;;;;7.13;4.35;;;;;;;5.48;63.86;99682.44;9628077;30;20459;-80
2021/12/17 21:54:03;;;;;;;8.32;4.13;;;;;;;5.55;63.69;99686.69;9640525;30;20135;-80
2021/12/17 21:59:25;;;;;;;6.75;4.15;;;;;;;5.61;63.48;99688.16;9642099;30;20047;-80
2021/12/17 22:04:46;;;;;;;7.80;4.15;;;;;;;5.58;63.98;99680.84;9643630;30;20111;-80
2021/12/17 22:10:07;;;;;;;10.05;4.60;;;;;;;5.58;63.93;99660.72;9630027;30;20547;-80
2021/12/17 22:15:29;;;;;;;6.28;3.42;;;;;;;5.40;63.97;99656.53;9640553;30;20510;-80
2021/12/17 22:20:58;;;;;;;7.03;4.35;;;;;;;5.25;64.05;99654.13;9640950;30;20479;-80
2021/12/17 22:26:19;;;;;;;9.80;4.32;;;;;;;5.11;63.84;99657.97;9627131;30;20065;-80
2021/12/17 22:31:40;;;;;;;8.23;3.95;;;;;;;4.99;64.01;99667.59;9627222;30;20063;-80
2021/12/17 22:37:01;;;;;;;7.28;4.05;;;;;;;4.85;64.28;99653.59;9638309;30;20078;-80
2021/12/17 22:42:22;;;;;;;7.82;4.45;;;;;;;4.73;64.68;99665.97;9638492;30;20071;-80
2021/12/17 22:47:43;;;;;;;6.78;3.85;;;;;;;4.61;64.72;99661.72;9637581;30;20058;-80
2021/12/17 22:53:05;;;;;;;8.48;3.95;;;;;;;4.53;64.54;99663.50;9638998;30;20110;-80
2021/12/17 22:58:26;;;;;;;8.13;4.10;;;;;;;4.43;65.20;99682.38;9638475;30;20047;-79
2021/12/17 23:04:06;;;;;;;10.80;5.43;;;;;;;4.34;64.85;99671.59;9637624;30;20055;-80
2021/12/17 23:09:29;;;;;;;12.02;5.25;;;;;;;4.26;65.28;99685.19;9637650;30;20129;-79
2021/12/17 23:14:53;;;;;;;9.57;5.53;;;;;;;4.19;65.98;99669.13;9639348;30;20059;-80
2021/12/17 23:20:14;;;;;;;9.73;5.13;;;;;;;4.07;65.90;99662.09;9638998;30;20488;-80
2021/12/17 23:25:35;;;;;;;11.20;6.10;;;;;;;4.03;66.08;99661.59;9592077;30;1138597;-80
2021/12/17 23:30:56;;;;;;;10.10;5.43;;;;;;;3.99;65.86;99645.28;9641742;30;20323;-80
2021/12/17 23:36:17;;;;;;;9.02;5.95;;;;;;;3.92;66.51;99650.56;9641146;30;20047;-80
2021/12/17 23:41:38;;;;;;;10.07;5.53;;;;;;;3.89;66.32;99646.03;9643871;30;20043;-79
2021/12/17 23:46:59;;;;;;;11.00;5.78;;;;;;;3.82;66.60;99654.81;9629142;30;20051;-80
2021/12/17 23:52:20;;;;;;;9.57;5.93;;;;;;;3.81;66.63;99675.44;9640045;30;20113;-80
2021/12/17 23:57:42;;;;;;;10.45;5.72;;;;;;;3.73;66.49;99684.22;9634104;30;20083;-80
